Daleville, Alabama
Current Conditions -  °F | °C
As of 11:58 AM on Thursday 18 Dec 2014 (Local Time) from KOZR Reporting Station
Clear Clear  
Wind Chill: 16°   Ceiling: Unl
Heat Index: 16°   Visibility: 10mi
Dew Point:   Wind: 2mph
Humidity: 36%   Direction: NA
Pressure: 30.15"   Gusts: NA
Location:  31.31°N, 85.71°W
Report Text: KOZR 181758Z AUTO VRB02KT 10SM CLR 16/01 A3015 RMK AO2 SLP212 T01580008 10158 20037 58023
Loading
Personal Weather Stations






























Interactive Weather Map New forecast layout! Learn more

10-Day Weather Forecast

Advertisements
Track Severe Weather on mobile